Terminal Aerodrome Forecast
Issued by NWS Dodge City, KS

Home | Current Version | Previous Version | Text Only | Print | Product List | Glossary On
Versions: 1 2 3 4 5 6 7 8 9 10 11 12 13 14 15 16 17 18 19
000
FTUS43 KDDC 232300
TAFDDC
TAF
KDDC 232321Z 2400/2424 17024G35KT P6SM VCTS BKN060CB
     FM240200 18023G30KT P6SM BKN150
     FM240400 34025G35KT P6SM VCTS BKN040CB
     FM240900 34018G28KT P6SM OVC040=

USA.gov is the U.S. government's official web portal to all federal, state and local government web resources and services.